KRID/RID METAR and TAF weather

Enter ICAO airport designator
Station Type Date Time Source
KRID METAR 2022/12/05 14:35 UTC NOAA

KRID 051435Z AUTO 18009KT 10SM CLR 00/M02 A3005 RMK AO2


Station Type Date Time Source
KRID Decoded METAR 2022/12/05 14:35 UTC NOAA

Station name not available
Dec 05, 2022 - 09:35 AM EST / 2022.12.05 1435 UTC
Wind: from the S (180 degrees) at 10 MPH (9 KT):0
Visibility: 10 mile(s):0
Sky conditions: clear
Temperature: 32 F (0 C)
Windchill: 23 F (-5 C):1
Dew Point: 28 F (-2 C)
Relative Humidity: 86%
Pressure (altimeter): 30.05 in. Hg (1017 hPa)
ob: KRID 051435Z AUTO 18009KT 10SM CLR 00/M02 A3005 RMK AO2
cycle: 14

Station Type Date Time Source
KRID TAF UTC NOAA

Error!

Example: see airport list